sensor_id;sensor_type;location;lat;lon;timestamp;pressure;altitude;pressure_sealevel;temperature;humidity
61757;BME280;57225;61.460;24.060;2023-08-20T00:00:57;101101.53;;;10.05;100.00
61757;BME280;57225;61.460;24.060;2023-08-20T00:03:42;101109.50;;;10.03;100.00
61757;BME280;57225;61.460;24.060;2023-08-20T00:06:27;101104.75;;;10.07;100.00
61757;BME280;57225;61.460;24.060;2023-08-20T00:09:12;101098.81;;;10.09;100.00
61757;BME280;57225;61.460;24.060;2023-08-20T00:11:57;101100.91;;;10.16;100.00
61757;BME280;57225;61.460;24.060;2023-08-20T00:14:57;101097.38;;;10.19;100.00
61757;BME280;57225;61.460;24.060;2023-08-20T00:17:59;101093.50;;;10.23;100.00
61757;BME280;57225;61.460;24.060;2023-08-20T00:20:43;101094.59;;;10.19;100.00
61757;BME280;57225;61.460;24.060;2023-08-20T00:23:29;101093.53;;;10.27;100.00
61757;BME280;57225;61.460;24.060;2023-08-20T00:26:13;101091.06;;;10.22;100.00
61757;BME280;57225;61.460;24.060;2023-08-20T00:28:57;101099.31;;;10.15;100.00
61757;BME280;57225;61.460;24.060;2023-08-20T00:31:41;101092.34;;;10.01;100.00
61757;BME280;57225;61.460;24.060;2023-08-20T00:34:26;101094.69;;;9.99;100.00
61757;BME280;57225;61.460;24.060;2023-08-20T00:37:10;101093.91;;;9.99;100.00
61757;BME280;57225;61.460;24.060;2023-08-20T00:39:54;101096.78;;;10.06;100.00
61757;BME280;57225;61.460;24.060;2023-08-20T00:42:38;101091.59;;;10.04;100.00
61757;BME280;57225;61.460;24.060;2023-08-20T00:45:23;101095.56;;;10.03;100.00
61757;BME280;57225;61.460;24.060;2023-08-20T00:48:08;101092.81;;;10.07;100.00
61757;BME280;57225;61.460;24.060;2023-08-20T00:50:52;101090.41;;;10.05;100.00
61757;BME280;57225;61.460;24.060;2023-08-20T00:53:37;101089.91;;;10.00;100.00
61757;BME280;57225;61.460;24.060;2023-08-20T00:56:21;101089.78;;;9.89;100.00
61757;BME280;57225;61.460;24.060;2023-08-20T00:59:05;101094.16;;;9.90;100.00
61757;BME280;57225;61.460;24.060;2023-08-20T01:01:50;101098.50;;;9.88;100.00
61757;BME280;57225;61.460;24.060;2023-08-20T01:04:34;101093.00;;;9.91;100.00
61757;BME280;57225;61.460;24.060;2023-08-20T01:13:21;101107.25;;;9.86;100.00
61757;BME280;57225;61.460;24.060;2023-08-20T01:16:05;101103.94;;;9.81;100.00
61757;BME280;57225;61.460;24.060;2023-08-20T01:18:50;101106.38;;;9.82;100.00
61757;BME280;57225;61.460;24.060;2023-08-20T01:21:39;101105.41;;;9.71;100.00
61757;BME280;57225;61.460;24.060;2023-08-20T01:24:34;101105.75;;;9.69;100.00
61757;BME280;57225;61.460;24.060;2023-08-20T01:30:08;101099.50;;;9.76;100.00
61757;BME280;57225;61.460;24.060;2023-08-20T01:32:53;101090.00;;;9.77;100.00
61757;BME280;57225;61.460;24.060;2023-08-20T01:35:40;101102.38;;;9.80;100.00
61757;BME280;57225;61.460;24.060;2023-08-20T01:38:24;101097.66;;;9.84;100.00
61757;BME280;57225;61.460;24.060;2023-08-20T01:41:08;101107.28;;;9.90;100.00
61757;BME280;57225;61.460;24.060;2023-08-20T01:43:53;101104.13;;;9.91;100.00
61757;BME280;57225;61.460;24.060;2023-08-20T01:46:37;101099.75;;;9.90;100.00
61757;BME280;57225;61.460;24.060;2023-08-20T01:49:21;101098.44;;;9.84;100.00
61757;BME280;57225;61.460;24.060;2023-08-20T01:52:06;101109.63;;;9.88;100.00
61757;BME280;57225;61.460;24.060;2023-08-20T01:54:49;101105.53;;;9.78;100.00
61757;BME280;57225;61.460;24.060;2023-08-20T01:57:34;101098.38;;;9.81;100.00
61757;BME280;57225;61.460;24.060;2023-08-20T02:00:18;101104.03;;;9.84;100.00
61757;BME280;57225;61.460;24.060;2023-08-20T02:03:03;101102.84;;;9.85;100.00
61757;BME280;57225;61.460;24.060;2023-08-20T02:05:47;101099.63;;;9.83;100.00
61757;BME280;57225;61.460;24.060;2023-08-20T02:08:31;101104.75;;;9.81;100.00
61757;BME280;57225;61.460;24.060;2023-08-20T02:11:15;101103.53;;;9.79;100.00
61757;BME280;57225;61.460;24.060;2023-08-20T02:14:00;101105.56;;;9.82;100.00
61757;BME280;57225;61.460;24.060;2023-08-20T02:16:45;101097.91;;;9.75;100.00
61757;BME280;57225;61.460;24.060;2023-08-20T02:19:29;101106.69;;;9.77;100.00
61757;BME280;57225;61.460;24.060;2023-08-20T02:22:13;101103.09;;;9.77;100.00
61757;BME280;57225;61.460;24.060;2023-08-20T02:24:58;101096.72;;;9.76;100.00
61757;BME280;57225;61.460;24.060;2023-08-20T02:27:42;101099.16;;;9.78;100.00
61757;BME280;57225;61.460;24.060;2023-08-20T02:30:26;101092.78;;;9.77;100.00
61757;BME280;57225;61.460;24.060;2023-08-20T02:33:10;101095.91;;;9.76;100.00
61757;BME280;57225;61.460;24.060;2023-08-20T02:35:55;101092.81;;;9.81;100.00
61757;BME280;57225;61.460;24.060;2023-08-20T02:38:39;101094.38;;;9.78;100.00
61757;BME280;57225;61.460;24.060;2023-08-20T02:41:26;101098.69;;;9.76;100.00
61757;BME280;57225;61.460;24.060;2023-08-20T02:47:20;101085.75;;;9.87;100.00
61757;BME280;57225;61.460;24.060;2023-08-20T02:50:04;101099.31;;;9.88;100.00
61757;BME280;57225;61.460;24.060;2023-08-20T02:52:48;101097.69;;;9.87;100.00
61757;BME280;57225;61.460;24.060;2023-08-20T02:55:33;101102.16;;;9.92;100.00
61757;BME280;57225;61.460;24.060;2023-08-20T02:58:19;101089.88;;;9.96;100.00
61757;BME280;57225;61.460;24.060;2023-08-20T03:01:03;101100.25;;;9.99;100.00
61757;BME280;57225;61.460;24.060;2023-08-20T03:03:48;101095.09;;;9.98;100.00
61757;BME280;57225;61.460;24.060;2023-08-20T03:06:32;101104.25;;;9.98;100.00
61757;BME280;57225;61.460;24.060;2023-08-20T03:09:16;101096.31;;;10.00;100.00
61757;BME280;57225;61.460;24.060;2023-08-20T03:12:01;101101.03;;;9.96;100.00
61757;BME280;57225;61.460;24.060;2023-08-20T03:14:45;101106.03;;;9.87;100.00
61757;BME280;57225;61.460;24.060;2023-08-20T03:17:29;101106.84;;;9.88;100.00
61757;BME280;57225;61.460;24.060;2023-08-20T03:20:13;101102.19;;;9.95;100.00
61757;BME280;57225;61.460;24.060;2023-08-20T03:22:58;101095.44;;;9.96;100.00
61757;BME280;57225;61.460;24.060;2023-08-20T03:25:42;101102.63;;;9.97;100.00
61757;BME280;57225;61.460;24.060;2023-08-20T03:28:26;101101.47;;;9.98;100.00
61757;BME280;57225;61.460;24.060;2023-08-20T03:31:10;101096.31;;;10.00;100.00
61757;BME280;57225;61.460;24.060;2023-08-20T03:33:55;101104.72;;;10.04;100.00
61757;BME280;57225;61.460;24.060;2023-08-20T03:36:39;101101.94;;;10.04;100.00
61757;BME280;57225;61.460;24.060;2023-08-20T03:39:23;101098.34;;;10.03;100.00
61757;BME280;57225;61.460;24.060;2023-08-20T03:42:07;101095.59;;;10.07;100.00
61757;BME280;57225;61.460;24.060;2023-08-20T03:44:52;101088.06;;;10.07;100.00
61757;BME280;57225;61.460;24.060;2023-08-20T03:47:36;101090.41;;;10.05;100.00
61757;BME280;57225;61.460;24.060;2023-08-20T03:50:20;101089.84;;;10.19;100.00
61757;BME280;57225;61.460;24.060;2023-08-20T03:53:04;101085.59;;;10.29;100.00
61757;BME280;57225;61.460;24.060;2023-08-20T03:55:49;101085.41;;;10.44;100.00
61757;BME280;57225;61.460;24.060;2023-08-20T03:58:33;101087.13;;;10.56;100.00
61757;BME280;57225;61.460;24.060;2023-08-20T04:01:17;101083.22;;;10.61;100.00
61757;BME280;57225;61.460;24.060;2023-08-20T04:04:02;101088.50;;;10.69;100.00
61757;BME280;57225;61.460;24.060;2023-08-20T04:06:46;101090.19;;;10.77;100.00
61757;BME280;57225;61.460;24.060;2023-08-20T04:09:31;101083.91;;;10.84;100.00
61757;BME280;57225;61.460;24.060;2023-08-20T04:12:16;101091.28;;;11.03;100.00
61757;BME280;57225;61.460;24.060;2023-08-20T04:15:00;101093.34;;;11.13;100.00
61757;BME280;57225;61.460;24.060;2023-08-20T04:17:45;101082.31;;;11.23;100.00
61757;BME280;57225;61.460;24.060;2023-08-20T04:20:29;101086.00;;;11.31;100.00
61757;BME280;57225;61.460;24.060;2023-08-20T04:23:13;101082.06;;;11.39;100.00
61757;BME280;57225;61.460;24.060;2023-08-20T04:25:57;101085.34;;;11.52;100.00
61757;BME280;57225;61.460;24.060;2023-08-20T04:28:42;101081.81;;;11.58;100.00
61757;BME280;57225;61.460;24.060;2023-08-20T04:31:26;101078.34;;;11.68;100.00
61757;BME280;57225;61.460;24.060;2023-08-20T04:34:10;101089.50;;;11.72;100.00
61757;BME280;57225;61.460;24.060;2023-08-20T04:36:54;101074.41;;;11.77;100.00
61757;BME280;57225;61.460;24.060;2023-08-20T04:39:38;101079.25;;;11.80;100.00
61757;BME280;57225;61.460;24.060;2023-08-20T04:42:22;101073.75;;;11.94;100.00
61757;BME280;57225;61.460;24.060;2023-08-20T04:45:06;101068.31;;;12.22;100.00
61757;BME280;57225;61.460;24.060;2023-08-20T04:47:51;101061.69;;;12.52;100.00
61757;BME280;57225;61.460;24.060;2023-08-20T04:50:35;101069.50;;;13.18;100.00
61757;BME280;57225;61.460;24.060;2023-08-20T04:53:19;101059.78;;;15.68;100.00
61757;BME280;57225;61.460;24.060;2023-08-20T04:56:03;101057.06;;;18.83;77.09
61757;BME280;57225;61.460;24.060;2023-08-20T04:58:47;101076.63;;;22.29;63.61
61757;BME280;57225;61.460;24.060;2023-08-20T05:01:31;101080.47;;;23.81;57.32
61757;BME280;57225;61.460;24.060;2023-08-20T05:04:16;101077.47;;;25.45;50.58
61757;BME280;57225;61.460;24.060;2023-08-20T05:07:00;101089.75;;;26.40;48.39
61757;BME280;57225;61.460;24.060;2023-08-20T05:09:44;101084.81;;;26.56;47.84
61757;BME280;57225;61.460;24.060;2023-08-20T05:12:28;101081.81;;;27.18;45.03
61757;BME280;57225;61.460;24.060;2023-08-20T05:15:13;101074.81;;;24.90;49.41
61757;BME280;57225;61.460;24.060;2023-08-20T05:17:57;101070.66;;;25.42;48.43
61757;BME280;57225;61.460;24.060;2023-08-20T05:20:41;101065.97;;;24.70;50.96
61757;BME280;57225;61.460;24.060;2023-08-20T05:23:25;101059.75;;;25.32;48.96
61757;BME280;57225;61.460;24.060;2023-08-20T05:26:09;101063.78;;;24.28;51.99
61757;BME280;57225;61.460;24.060;2023-08-20T05:28:54;101068.13;;;23.75;53.19
61757;BME280;57225;61.460;24.060;2023-08-20T05:31:38;101063.50;;;23.19;54.65
61757;BME280;57225;61.460;24.060;2023-08-20T05:34:22;101057.50;;;22.42;57.48
61757;BME280;57225;61.460;24.060;2023-08-20T05:37:06;101049.03;;;21.95;59.44
61757;BME280;57225;61.460;24.060;2023-08-20T05:39:50;101049.81;;;21.23;61.05
61757;BME280;57225;61.460;24.060;2023-08-20T05:42:34;101037.00;;;20.52;64.49
61757;BME280;57225;61.460;24.060;2023-08-20T05:45:18;101054.03;;;19.26;68.76
61757;BME280;57225;61.460;24.060;2023-08-20T05:48:03;101054.13;;;18.47;73.09
61757;BME280;57225;61.460;24.060;2023-08-20T05:50:47;101061.97;;;18.20;73.97
61757;BME280;57225;61.460;24.060;2023-08-20T05:53:31;101048.09;;;17.86;77.79
61757;BME280;57225;61.460;24.060;2023-08-20T05:56:15;101052.84;;;17.42;79.17
61757;BME280;57225;61.460;24.060;2023-08-20T05:59:00;101049.59;;;17.44;80.25
61757;BME280;57225;61.460;24.060;2023-08-20T06:01:44;101053.81;;;17.32;83.65
61757;BME280;57225;61.460;24.060;2023-08-20T06:04:28;101049.31;;;17.35;82.02
61757;BME280;57225;61.460;24.060;2023-08-20T06:07:12;101056.28;;;17.26;81.04
61757;BME280;57225;61.460;24.060;2023-08-20T06:09:57;101050.34;;;16.94;83.49
61757;BME280;57225;61.460;24.060;2023-08-20T06:12:41;101050.34;;;16.64;83.30
61757;BME280;57225;61.460;24.060;2023-08-20T06:15:25;101047.19;;;16.62;83.87
61757;BME280;57225;61.460;24.060;2023-08-20T06:18:09;101071.59;;;16.99;86.49
61757;BME280;57225;61.460;24.060;2023-08-20T06:20:53;101058.03;;;16.90;82.12
61757;BME280;57225;61.460;24.060;2023-08-20T06:23:37;101066.59;;;17.10;84.06
61757;BME280;57225;61.460;24.060;2023-08-20T06:26:22;101059.47;;;17.02;80.22
61757;BME280;57225;61.460;24.060;2023-08-20T06:29:06;101064.75;;;17.26;80.86
61757;BME280;57225;61.460;24.060;2023-08-20T06:31:50;101068.88;;;17.45;80.28
61757;BME280;57225;61.460;24.060;2023-08-20T06:34:34;101066.03;;;17.22;79.83
61757;BME280;57225;61.460;24.060;2023-08-20T06:37:20;101064.44;;;17.71;84.97
61757;BME280;57225;61.460;24.060;2023-08-20T06:40:04;101066.81;;;17.96;75.38
61757;BME280;57225;61.460;24.060;2023-08-20T06:42:49;101066.84;;;17.73;76.28
61757;BME280;57225;61.460;24.060;2023-08-20T06:45:33;101064.03;;;17.73;75.25
61757;BME280;57225;61.460;24.060;2023-08-20T06:48:17;101066.91;;;17.69;76.06
61757;BME280;57225;61.460;24.060;2023-08-20T06:51:18;101065.06;;;17.82;77.60
61757;BME280;57225;61.460;24.060;2023-08-20T06:54:03;101060.59;;;17.85;75.62
61757;BME280;57225;61.460;24.060;2023-08-20T06:56:49;101069.47;;;18.06;75.37
61757;BME280;57225;61.460;24.060;2023-08-20T06:59:34;101064.72;;;18.43;73.41
61757;BME280;57225;61.460;24.060;2023-08-20T07:02:18;101077.97;;;18.46;70.23
61757;BME280;57225;61.460;24.060;2023-08-20T07:05:03;101075.69;;;18.18;69.89
61757;BME280;57225;61.460;24.060;2023-08-20T07:07:47;101074.56;;;18.35;69.74
61757;BME280;57225;61.460;24.060;2023-08-20T07:10:31;101076.66;;;18.31;69.96
61757;BME280;57225;61.460;24.060;2023-08-20T07:13:15;101078.59;;;18.57;71.12
61757;BME280;57225;61.460;24.060;2023-08-20T07:15:59;101074.19;;;18.13;69.66
61757;BME280;57225;61.460;24.060;2023-08-20T07:18:43;101057.63;;;18.35;73.23
61757;BME280;57225;61.460;24.060;2023-08-20T07:21:28;101065.53;;;18.83;70.81
61757;BME280;57225;61.460;24.060;2023-08-20T07:24:12;101068.22;;;19.06;67.95
61757;BME280;57225;61.460;24.060;2023-08-20T07:26:56;101073.34;;;19.11;65.76
61757;BME280;57225;61.460;24.060;2023-08-20T07:29:44;101065.31;;;19.10;64.58
61757;BME280;57225;61.460;24.060;2023-08-20T07:32:29;101065.84;;;18.69;64.76
61757;BME280;57225;61.460;24.060;2023-08-20T07:35:12;101056.97;;;18.86;65.04
61757;BME280;57225;61.460;24.060;2023-08-20T07:37:57;101069.41;;;19.25;66.23
61757;BME280;57225;61.460;24.060;2023-08-20T07:40:41;101063.06;;;19.21;63.34
61757;BME280;57225;61.460;24.060;2023-08-20T07:43:25;101063.47;;;19.72;63.66
61757;BME280;57225;61.460;24.060;2023-08-20T07:46:09;101058.09;;;19.41;62.03
61757;BME280;57225;61.460;24.060;2023-08-20T07:48:54;101058.09;;;19.25;63.52
61757;BME280;57225;61.460;24.060;2023-08-20T07:51:38;101049.97;;;19.43;61.86
61757;BME280;57225;61.460;24.060;2023-08-20T07:54:22;101063.75;;;19.25;62.83
61757;BME280;57225;61.460;24.060;2023-08-20T07:57:06;101060.56;;;19.23;65.40
61757;BME280;57225;61.460;24.060;2023-08-20T07:59:51;101051.97;;;19.46;63.04
61757;BME280;57225;61.460;24.060;2023-08-20T08:02:35;101054.31;;;19.32;62.09
61757;BME280;57225;61.460;24.060;2023-08-20T08:05:19;101054.25;;;19.67;63.54
61757;BME280;57225;61.460;24.060;2023-08-20T08:08:03;101053.28;;;19.58;62.16
61757;BME280;57225;61.460;24.060;2023-08-20T08:10:48;101062.03;;;19.63;64.86
61757;BME280;57225;61.460;24.060;2023-08-20T08:13:32;101064.28;;;20.01;64.77
61757;BME280;57225;61.460;24.060;2023-08-20T08:16:17;101067.78;;;19.76;63.80
61757;BME280;57225;61.460;24.060;2023-08-20T08:19:01;101051.41;;;19.84;62.20
61757;BME280;57225;61.460;24.060;2023-08-20T08:21:46;101062.41;;;19.65;64.77
61757;BME280;57225;61.460;24.060;2023-08-20T08:24:30;101055.84;;;19.85;64.15
61757;BME280;57225;61.460;24.060;2023-08-20T08:27:15;101062.03;;;20.25;62.17
61757;BME280;57225;61.460;24.060;2023-08-20T08:29:59;101059.06;;;20.44;61.14
61757;BME280;57225;61.460;24.060;2023-08-20T08:32:43;101048.91;;;20.02;62.16
61757;BME280;57225;61.460;24.060;2023-08-20T08:35:27;101050.94;;;20.01;60.90
61757;BME280;57225;61.460;24.060;2023-08-20T08:38:11;101059.22;;;19.63;61.96
61757;BME280;57225;61.460;24.060;2023-08-20T08:40:55;101055.50;;;20.12;62.59
61757;BME280;57225;61.460;24.060;2023-08-20T08:43:40;101046.63;;;19.97;61.69
61757;BME280;57225;61.460;24.060;2023-08-20T08:46:24;101048.78;;;19.77;63.22
61757;BME280;57225;61.460;24.060;2023-08-20T08:49:09;101047.19;;;20.04;60.34
61757;BME280;57225;61.460;24.060;2023-08-20T08:51:53;101054.44;;;20.51;61.93
61757;BME280;57225;61.460;24.060;2023-08-20T08:54:38;101044.44;;;21.00;57.42
61757;BME280;57225;61.460;24.060;2023-08-20T08:57:22;101048.88;;;21.01;55.95
61757;BME280;57225;61.460;24.060;2023-08-20T09:00:06;101041.75;;;21.35;57.65
61757;BME280;57225;61.460;24.060;2023-08-20T09:02:51;101040.69;;;20.78;56.04
61757;BME280;57225;61.460;24.060;2023-08-20T09:05:45;101037.75;;;21.07;56.27
61757;BME280;57225;61.460;24.060;2023-08-20T09:08:30;101032.91;;;21.33;54.86
61757;BME280;57225;61.460;24.060;2023-08-20T09:11:15;101033.22;;;20.97;55.29
61757;BME280;57225;61.460;24.060;2023-08-20T09:13:59;101026.78;;;21.21;54.67
61757;BME280;57225;61.460;24.060;2023-08-20T09:16:43;101015.88;;;21.33;54.28
61757;BME280;57225;61.460;24.060;2023-08-20T09:19:28;101014.47;;;22.10;54.59
61757;BME280;57225;61.460;24.060;2023-08-20T09:22:13;101012.63;;;21.81;53.50
61757;BME280;57225;61.460;24.060;2023-08-20T09:25:00;101006.66;;;21.88;54.87
61757;BME280;57225;61.460;24.060;2023-08-20T09:27:45;101014.84;;;22.21;51.92
61757;BME280;57225;61.460;24.060;2023-08-20T09:32:21;101010.28;;;22.89;52.47
61757;BME280;57225;61.460;24.060;2023-08-20T09:35:05;101006.59;;;22.57;50.74
61757;BME280;57225;61.460;24.060;2023-08-20T09:37:51;101001.56;;;22.61;52.16
61757;BME280;57225;61.460;24.060;2023-08-20T09:40:35;101000.78;;;22.61;51.77
61757;BME280;57225;61.460;24.060;2023-08-20T09:43:19;101002.97;;;22.35;49.95
61757;BME280;57225;61.460;24.060;2023-08-20T09:46:06;100999.94;;;22.29;49.17
61757;BME280;57225;61.460;24.060;2023-08-20T09:48:51;100989.94;;;22.46;47.74
61757;BME280;57225;61.460;24.060;2023-08-20T09:51:38;100988.88;;;22.53;49.16
61757;BME280;57225;61.460;24.060;2023-08-20T09:57:52;100983.56;;;21.77;50.43
61757;BME280;57225;61.460;24.060;2023-08-20T10:00:38;100978.13;;;22.26;51.35
61757;BME280;57225;61.460;24.060;2023-08-20T10:03:22;100975.47;;;22.75;49.32
61757;BME280;57225;61.460;24.060;2023-08-20T10:06:07;100977.75;;;22.68;48.75
61757;BME280;57225;61.460;24.060;2023-08-20T10:08:52;100973.94;;;22.62;50.45
61757;BME280;57225;61.460;24.060;2023-08-20T10:11:37;100973.66;;;22.69;50.55
61757;BME280;57225;61.460;24.060;2023-08-20T10:14:22;100968.66;;;22.73;48.80
61757;BME280;57225;61.460;24.060;2023-08-20T10:17:08;100974.88;;;22.90;48.62
61757;BME280;57225;61.460;24.060;2023-08-20T10:19:56;100958.88;;;23.14;48.40
61757;BME280;57225;61.460;24.060;2023-08-20T10:22:43;100968.41;;;23.38;48.09
61757;BME280;57225;61.460;24.060;2023-08-20T10:25:29;100956.78;;;23.14;49.28
61757;BME280;57225;61.460;24.060;2023-08-20T10:28:22;100956.84;;;22.83;45.88
61757;BME280;57225;61.460;24.060;2023-08-20T10:31:08;100955.47;;;22.97;45.80
61757;BME280;57225;61.460;24.060;2023-08-20T10:33:57;100947.72;;;22.89;49.30
61757;BME280;57225;61.460;24.060;2023-08-20T10:36:42;100957.84;;;23.48;48.83
61757;BME280;57225;61.460;24.060;2023-08-20T10:39:26;100938.63;;;23.21;47.91
61757;BME280;57225;61.460;24.060;2023-08-20T10:45:06;100956.13;;;24.05;48.30
61757;BME280;57225;61.460;24.060;2023-08-20T10:47:54;100949.16;;;23.97;47.03
61757;BME280;57225;61.460;24.060;2023-08-20T10:50:40;100942.53;;;23.91;46.84
61757;BME280;57225;61.460;24.060;2023-08-20T10:53:24;100952.69;;;23.83;45.69
61757;BME280;57225;61.460;24.060;2023-08-20T10:56:13;100945.53;;;24.15;45.25
61757;BME280;57225;61.460;24.060;2023-08-20T10:59:07;100955.59;;;24.52;44.05
61757;BME280;57225;61.460;24.060;2023-08-20T11:01:55;100946.47;;;23.66;44.39
61757;BME280;57225;61.460;24.060;2023-08-20T11:04:40;100938.72;;;24.03;46.37
61757;BME280;57225;61.460;24.060;2023-08-20T11:07:25;100939.91;;;24.48;44.18
61757;BME280;57225;61.460;24.060;2023-08-20T11:10:13;100940.81;;;24.72;44.90
61757;BME280;57225;61.460;24.060;2023-08-20T11:12:58;100930.69;;;24.71;43.51
61757;BME280;57225;61.460;24.060;2023-08-20T11:15:42;100937.06;;;24.48;43.13
61757;BME280;57225;61.460;24.060;2023-08-20T11:18:26;100936.53;;;23.80;43.62
61757;BME280;57225;61.460;24.060;2023-08-20T11:21:12;100926.38;;;24.33;45.67
61757;BME280;57225;61.460;24.060;2023-08-20T11:23:57;100920.13;;;24.86;45.06
61757;BME280;57225;61.460;24.060;2023-08-20T11:26:43;100920.03;;;25.13;43.84
61757;BME280;57225;61.460;24.060;2023-08-20T11:29:27;100914.19;;;25.32;43.71
61757;BME280;57225;61.460;24.060;2023-08-20T11:32:12;100912.38;;;25.19;43.00
61757;BME280;57225;61.460;24.060;2023-08-20T11:34:56;100916.19;;;24.83;42.07
61757;BME280;57225;61.460;24.060;2023-08-20T11:37:41;100899.84;;;25.17;43.62
61757;BME280;57225;61.460;24.060;2023-08-20T11:40:27;100907.28;;;25.47;41.33
61757;BME280;57225;61.460;24.060;2023-08-20T11:43:11;100915.03;;;24.99;43.48
61757;BME280;57225;61.460;24.060;2023-08-20T11:45:56;100894.94;;;25.17;43.07
61757;BME280;57225;61.460;24.060;2023-08-20T11:49:03;100904.09;;;25.69;42.97
61757;BME280;57225;61.460;24.060;2023-08-20T11:51:48;100893.78;;;25.86;43.17
61757;BME280;57225;61.460;24.060;2023-08-20T11:54:33;100898.94;;;26.12;42.59
61757;BME280;57225;61.460;24.060;2023-08-20T11:57:18;100888.69;;;26.05;40.61
61757;BME280;57225;61.460;24.060;2023-08-20T12:00:06;100890.66;;;25.84;40.75
61757;BME280;57225;61.460;24.060;2023-08-20T12:02:58;100902.31;;;26.10;42.23
61757;BME280;57225;61.460;24.060;2023-08-20T12:05:42;100889.66;;;25.87;41.93
61757;BME280;57225;61.460;24.060;2023-08-20T12:08:27;100894.19;;;25.94;40.20
61757;BME280;57225;61.460;24.060;2023-08-20T12:11:12;100894.19;;;25.79;42.46
61757;BME280;57225;61.460;24.060;2023-08-20T12:13:57;100887.09;;;25.89;41.31
61757;BME280;57225;61.460;24.060;2023-08-20T12:16:41;100895.75;;;25.66;42.62
61757;BME280;57225;61.460;24.060;2023-08-20T12:19:26;100894.91;;;26.03;42.33
61757;BME280;57225;61.460;24.060;2023-08-20T12:22:10;100883.19;;;26.31;42.22
61757;BME280;57225;61.460;24.060;2023-08-20T12:24:55;100886.69;;;26.70;40.18
61757;BME280;57225;61.460;24.060;2023-08-20T12:27:39;100882.69;;;26.47;39.86
61757;BME280;57225;61.460;24.060;2023-08-20T12:30:24;100872.53;;;26.31;41.37
61757;BME280;57225;61.460;24.060;2023-08-20T12:33:08;100878.31;;;26.66;40.79
61757;BME280;57225;61.460;24.060;2023-08-20T12:35:56;100874.41;;;26.84;41.28
61757;BME280;57225;61.460;24.060;2023-08-20T12:38:40;100866.25;;;26.92;38.90
61757;BME280;57225;61.460;24.060;2023-08-20T12:41:26;100866.63;;;26.99;40.51
61757;BME280;57225;61.460;24.060;2023-08-20T12:44:25;100860.38;;;27.01;40.00
61757;BME280;57225;61.460;24.060;2023-08-20T12:47:10;100860.38;;;27.01;39.62
61757;BME280;57225;61.460;24.060;2023-08-20T12:49:54;100850.09;;;27.09;41.19
61757;BME280;57225;61.460;24.060;2023-08-20T12:52:40;100851.66;;;27.10;40.70
61757;BME280;57225;61.460;24.060;2023-08-20T12:55:25;100851.50;;;27.19;38.08
61757;BME280;57225;61.460;24.060;2023-08-20T12:58:09;100843.22;;;27.21;39.66
61757;BME280;57225;61.460;24.060;2023-08-20T13:00:54;100839.84;;;27.23;39.30
61757;BME280;57225;61.460;24.060;2023-08-20T13:03:38;100833.09;;;27.26;39.09
61757;BME280;57225;61.460;24.060;2023-08-20T13:06:23;100835.59;;;27.38;39.78
61757;BME280;57225;61.460;24.060;2023-08-20T13:09:08;100834.63;;;27.21;39.78
61757;BME280;57225;61.460;24.060;2023-08-20T13:11:53;100839.50;;;27.15;39.68
61757;BME280;57225;61.460;24.060;2023-08-20T13:14:40;100832.81;;;26.48;40.07
61757;BME280;57225;61.460;24.060;2023-08-20T13:17:25;100831.50;;;26.84;40.13
61757;BME280;57225;61.460;24.060;2023-08-20T13:20:10;100828.75;;;26.55;38.58
61757;BME280;57225;61.460;24.060;2023-08-20T13:22:55;100816.16;;;26.32;39.54
61757;BME280;57225;61.460;24.060;2023-08-20T13:25:40;100817.38;;;26.60;41.02
61757;BME280;57225;61.460;24.060;2023-08-20T13:28:24;100821.19;;;26.72;39.32
61757;BME280;57225;61.460;24.060;2023-08-20T13:31:09;100828.28;;;26.76;40.25
61757;BME280;57225;61.460;24.060;2023-08-20T13:33:53;100828.06;;;26.80;40.64
61757;BME280;57225;61.460;24.060;2023-08-20T13:36:38;100822.41;;;26.65;38.64
61757;BME280;57225;61.460;24.060;2023-08-20T13:39:22;100812.09;;;26.53;40.03
61757;BME280;57225;61.460;24.060;2023-08-20T13:42:07;100815.97;;;26.21;39.88
61757;BME280;57225;61.460;24.060;2023-08-20T13:44:51;100804.34;;;26.10;41.54
61757;BME280;57225;61.460;24.060;2023-08-20T13:47:36;100793.31;;;25.88;40.73
61757;BME280;57225;61.460;24.060;2023-08-20T13:50:21;100800.81;;;25.71;41.29
61757;BME280;57225;61.460;24.060;2023-08-20T13:53:05;100796.31;;;25.55;41.92
61757;BME280;57225;61.460;24.060;2023-08-20T13:55:50;100789.09;;;25.15;43.06
61757;BME280;57225;61.460;24.060;2023-08-20T13:58:34;100785.59;;;24.97;42.51
61757;BME280;57225;61.460;24.060;2023-08-20T14:01:19;100774.53;;;24.66;42.94
61757;BME280;57225;61.460;24.060;2023-08-20T14:04:03;100767.50;;;24.43;41.44
61757;BME280;57225;61.460;24.060;2023-08-20T14:06:48;100778.22;;;24.24;43.72
61757;BME280;57225;61.460;24.060;2023-08-20T14:09:32;100776.53;;;24.09;45.58
61757;BME280;57225;61.460;24.060;2023-08-20T14:12:19;100775.81;;;23.81;45.45
61757;BME280;57225;61.460;24.060;2023-08-20T14:15:04;100767.19;;;23.57;47.03
61757;BME280;57225;61.460;24.060;2023-08-20T14:17:49;100758.97;;;23.32;46.09
61757;BME280;57225;61.460;24.060;2023-08-20T14:20:33;100774.78;;;23.23;46.83
61757;BME280;57225;61.460;24.060;2023-08-20T14:23:17;100767.66;;;23.10;47.82
61757;BME280;57225;61.460;24.060;2023-08-20T14:26:05;100771.25;;;22.83;48.71
61757;BME280;57225;61.460;24.060;2023-08-20T14:28:50;100761.09;;;22.64;49.08